Time;durP1;ratioP1;P1;durP2;ratioP2;P2;SDS_P1;SDS_P2;PMS_P1;PMS_P2;Temp;Humidity;BMP_temperature;BMP_pressure;BME280_temperature;BME280_humidity;BME280_pressure;Samples;Min_cycle;Max_cycle;Signal;HPM_P1;HPM_P2
2023/10/21 00:01:25;;;;;;;7.25;4.55;;;;;;;18.91;49.86;91197.97;6121502;23;20013;-92
2023/10/21 00:03:50;;;;;;;5.32;4.18;;;;;;;18.91;49.95;91203.47;6098445;23;20021;-92
2023/10/21 00:06:16;;;;;;;8.07;4.43;;;;;;;18.89;49.42;91201.28;6096562;23;20032;-91
2023/10/21 00:08:41;;;;;;;6.22;3.97;;;;;;;18.91;49.67;91190.50;6098040;23;20032;-92
2023/10/21 00:11:09;;;;;;;6.43;4.60;;;;;;;18.91;49.62;91195.97;6121488;23;20064;-92
2023/10/21 00:13:35;;;;;;;5.15;3.47;;;;;;;18.93;49.78;91193.41;6122854;23;20062;-94
2023/10/21 00:16:01;;;;;;;6.90;4.65;;;;;;;18.92;49.58;91202.16;6097544;23;20013;-90
2023/10/21 00:18:27;;;;;;;6.32;4.30;;;;;;;18.92;49.31;91211.09;6097012;23;20024;-92
2023/10/21 00:20:53;;;;;;;5.30;3.50;;;;;;;18.90;49.75;91219.16;6122321;23;20022;-91
2023/10/21 00:23:20;;;;;;;4.03;3.38;;;;;;;18.93;50.11;91222.78;6097220;23;20021;-92
2023/10/21 00:25:45;;;;;;;5.78;4.07;;;;;;;18.90;50.06;91221.91;6122219;23;20088;-91
2023/10/21 00:28:11;;;;;;;5.47;3.90;;;;;;;18.95;49.66;91231.16;6096946;23;20847;-90
2023/10/21 00:30:36;;;;;;;4.97;3.50;;;;;;;18.89;49.61;91245.09;6098114;23;20025;-92
2023/10/21 00:33:01;;;;;;;6.07;3.30;;;;;;;18.92;49.68;91254.19;6097392;23;20018;-91
2023/10/21 00:35:27;;;;;;;6.05;3.78;;;;;;;18.89;49.41;91256.03;6121434;23;20028;-92
2023/10/21 00:37:52;;;;;;;3.90;3.00;;;;;;;18.89;49.43;91249.84;6122595;23;20029;-92
2023/10/21 00:40:18;;;;;;;4.40;3.28;;;;;;;18.89;49.60;91242.34;6095557;23;20492;-91
2023/10/21 00:42:43;;;;;;;5.22;3.33;;;;;;;18.91;49.55;91261.69;6122753;23;20041;-90
2023/10/21 00:45:09;;;;;;;6.03;3.40;;;;;;;18.90;49.74;91257.50;6100961;23;20385;-91
2023/10/21 00:47:35;;;;;;;4.47;3.45;;;;;;;18.90;50.35;91248.56;6127245;23;20036;-92
2023/10/21 00:50:01;;;;;;;4.68;2.95;;;;;;;18.90;50.43;91232.84;6101642;23;20012;-93
2023/10/21 00:52:26;;;;;;;5.20;3.30;;;;;;;18.89;49.59;91244.38;6126635;23;20092;-91
2023/10/21 00:54:52;;;;;;;5.18;3.25;;;;;;;18.88;49.49;91240.91;6151338;23;20032;-91
2023/10/21 00:57:18;;;;;;;3.97;3.22;;;;;;;18.91;50.57;91244.53;6125689;23;20028;-92
2023/10/21 00:59:44;;;;;;;5.70;3.47;;;;;;;18.92;50.67;91246.69;6151448;23;20020;-92
2023/10/21 01:02:11;;;;;;;4.47;3.30;;;;;;;18.89;50.11;91244.38;6148621;23;20043;-91
2023/10/21 01:04:37;;;;;;;4.43;3.20;;;;;;;18.91;50.23;91248.00;6126826;23;20032;-92
2023/10/21 01:07:02;;;;;;;4.03;3.13;;;;;;;18.89;50.20;91245.09;6126188;23;20025;-90
2023/10/21 01:09:28;;;;;;;5.00;3.55;;;;;;;18.87;50.00;91244.94;6126530;23;20028;-93
2023/10/21 01:11:53;;;;;;;6.32;4.05;;;;;;;18.87;49.50;91250.41;6126999;23;20021;-93
2023/10/21 01:14:19;;;;;;;4.32;3.20;;;;;;;18.89;50.27;91241.63;6124671;23;20029;-93
2023/10/21 01:16:44;;;;;;;5.53;3.47;;;;;;;18.87;49.86;91233.97;6126762;23;20122;-91
2023/10/21 01:19:10;;;;;;;6.63;3.53;;;;;;;18.88;50.27;91246.38;6125252;23;20017;-92
2023/10/21 01:21:35;;;;;;;4.82;2.88;;;;;;;18.88;49.93;91232.69;6150734;23;20029;-91
2023/10/21 01:24:00;;;;;;;4.00;3.10;;;;;;;18.90;50.05;91241.06;6126744;23;20022;-91
2023/10/21 01:26:26;;;;;;;5.32;3.38;;;;;;;18.88;49.96;91243.63;6125605;23;20017;-91
2023/10/21 01:28:51;;;;;;;4.50;3.47;;;;;;;18.89;50.35;91258.06;6126720;23;20021;-90
2023/10/21 01:31:17;;;;;;;5.28;3.35;;;;;;;18.90;50.50;91259.50;6100861;23;20029;-92
2023/10/21 01:33:42;;;;;;;6.50;2.88;;;;;;;18.89;50.05;91242.34;6126534;23;20036;-92
2023/10/21 01:36:08;;;;;;;3.58;2.83;;;;;;;18.91;50.23;91241.78;6101527;23;20025;-91
2023/10/21 01:38:33;;;;;;;5.32;3.30;;;;;;;18.87;49.77;91244.94;6126366;23;20523;-91
2023/10/21 01:40:59;;;;;;;3.63;3.20;;;;;;;18.89;50.19;91258.06;6125977;23;20365;-91
2023/10/21 01:43:24;;;;;;;4.75;3.13;;;;;;;18.90;50.19;91254.75;6125931;23;20025;-91
2023/10/21 01:45:50;;;;;;;4.38;2.97;;;;;;;18.89;50.02;91258.06;6126362;23;20032;-93
2023/10/21 01:48:15;;;;;;;3.17;2.40;;;;;;;18.89;49.59;91255.31;6149902;23;20021;-92
2023/10/21 01:50:41;;;;;;;4.00;2.70;;;;;;;18.89;50.01;91272.47;6126106;23;20017;-91
2023/10/21 01:53:07;;;;;;;5.60;2.95;;;;;;;18.87;49.44;91277.78;6128313;23;20029;-90
2023/10/21 01:55:33;;;;;;;2.90;2.50;;;;;;;18.88;50.18;91273.75;6104285;23;20124;-92
2023/10/21 01:58:02;;;;;;;4.72;2.80;;;;;;;18.85;49.29;91283.09;6128647;23;20032;-91
2023/10/21 02:00:28;;;;;;;3.63;2.78;;;;;;;18.88;49.53;91292.91;6127779;23;20024;-92
2023/10/21 02:02:54;;;;;;;4.97;2.88;;;;;;;18.87;49.41;91316.09;6128249;23;20017;-92
2023/10/21 02:05:20;;;;;;;3.08;2.50;;;;;;;18.92;50.07;91314.41;6126915;23;20024;-90
2023/10/21 02:07:46;;;;;;;4.40;2.55;;;;;;;18.88;49.67;91311.34;6129205;23;20017;-92
2023/10/21 02:10:12;;;;;;;3.70;2.88;;;;;;;18.86;49.50;91314.66;6126988;23;20020;-92
2023/10/21 02:12:38;;;;;;;3.40;2.78;;;;;;;18.88;49.68;91319.56;6104152;23;20017;-90
2023/10/21 02:15:05;;;;;;;4.57;3.13;;;;;;;18.87;50.00;91316.09;6127708;23;20016;-92
2023/10/21 02:17:30;;;;;;;4.10;2.63;;;;;;;18.88;49.94;91323.03;6153116;23;20105;-91
2023/10/21 02:19:56;;;;;;;5.13;3.17;;;;;;;18.88;49.58;91327.78;6128252;23;20520;-92
2023/10/21 02:22:25;;;;;;;3.72;3.03;;;;;;;18.88;49.68;91328.50;6149257;23;20131;-93
2023/10/21 02:24:51;;;;;;;3.88;3.00;;;;;;;18.88;49.62;91338.72;6129472;23;20017;-93
2023/10/21 02:27:17;;;;;;;3.38;2.80;;;;;;;18.89;49.63;91351.13;6127097;23;20116;-93
2023/10/21 02:29:42;;;;;;;2.78;2.35;;;;;;;18.87;49.76;91346.22;6128638;23;20104;-92
2023/10/21 02:32:08;;;;;;;4.97;2.80;;;;;;;18.84;49.52;91359.00;6102789;23;20020;-91
2023/10/21 02:34:33;;;;;;;5.20;2.35;;;;;;;18.87;49.74;91365.38;6128514;23;20349;-91
2023/10/21 02:36:58;;;;;;;2.97;2.60;;;;;;;18.88;49.46;91366.09;6127825;23;20048;-92
2023/10/21 02:39:24;;;;;;;3.38;2.75;;;;;;;18.86;49.61;91372.16;6126937;23;20009;-92
2023/10/21 02:41:50;;;;;;;4.70;2.53;;;;;;;18.89;50.40;91373.75;6152858;23;20017;-91
2023/10/21 02:44:15;;;;;;;3.25;2.60;;;;;;;18.89;49.74;91381.25;6126670;23;20448;-91
2023/10/21 02:46:40;;;;;;;3.05;2.47;;;;;;;18.88;49.87;91383.25;6128403;23;20072;-91
2023/10/21 02:49:06;;;;;;;4.57;2.75;;;;;;;18.89;49.87;91395.66;6133522;23;20564;-91
2023/10/21 02:51:32;;;;;;;4.28;2.60;;;;;;;18.87;49.73;91383.81;6102570;23;20020;-92
2023/10/21 02:53:58;;;;;;;3.67;2.45;;;;;;;18.87;49.60;91384.53;6128580;23;20017;-90
2023/10/21 02:56:23;;;;;;;3.38;2.53;;;;;;;18.88;49.88;91382.53;6127437;23;20040;-91
2023/10/21 02:58:49;;;;;;;2.90;2.30;;;;;;;18.83;49.34;91384.97;6104200;23;20078;-92
2023/10/21 03:01:18;;;;;;;3.13;2.63;;;;;;;18.83;49.47;91392.47;6126361;23;20025;-93
2023/10/21 03:03:45;;;;;;;3.85;2.53;;;;;;;18.86;49.67;91396.06;6127881;23;20027;-93
2023/10/21 03:06:12;;;;;;;2.97;2.22;;;;;;;18.85;50.01;91400.81;6150787;23;20029;-91
2023/10/21 03:08:37;;;;;;;2.90;2.40;;;;;;;18.83;49.69;91401.41;6128153;23;20531;-93
2023/10/21 03:11:06;;;;;;;3.70;2.10;;;;;;;18.85;50.04;91398.06;6126730;23;20056;-90
2023/10/21 03:13:32;;;;;;;3.58;2.47;;;;;;;18.86;50.15;91407.00;6128797;23;20013;-93
2023/10/21 03:15:57;;;;;;;2.55;2.28;;;;;;;18.83;49.53;91406.16;6127861;23;20040;-90
2023/10/21 03:18:23;;;;;;;3.60;2.22;;;;;;;18.85;49.87;91403.53;6126980;23;20334;-92
2023/10/21 03:20:52;;;;;;;2.80;2.40;;;;;;;18.86;49.84;91409.75;6127846;23;20028;-89
2023/10/21 03:23:18;;;;;;;2.72;2.40;;;;;;;18.87;49.93;91409.19;6126431;23;20579;-93
2023/10/21 03:25:43;;;;;;;3.40;2.40;;;;;;;18.84;50.12;91404.84;6103961;23;20078;-92
2023/10/21 03:28:12;;;;;;;2.92;2.35;;;;;;;18.83;49.99;91409.59;6126767;23;20484;-91
2023/10/21 03:30:37;;;;;;;2.38;2.10;;;;;;;18.86;50.17;91417.97;6127942;23;20021;-93
2023/10/21 03:33:03;;;;;;;2.28;1.90;;;;;;;18.85;50.29;91419.97;6102370;23;20360;-91
2023/10/21 03:35:29;;;;;;;3.45;2.35;;;;;;;18.84;50.47;91429.47;6103643;23;20115;-92
2023/10/21 03:37:54;;;;;;;3.08;2.15;;;;;;;18.84;49.80;91432.22;6127671;23;20013;-92
2023/10/21 03:40:19;;;;;;;2.30;1.98;;;;;;;18.83;49.97;91434.25;6126076;23;20017;-90
2023/10/21 03:42:47;;;;;;;4.65;2.78;;;;;;;18.84;49.72;91432.94;6131786;23;20017;-93
2023/10/21 03:45:13;;;;;;;2.90;2.08;;;;;;;18.82;49.65;91432.78;6101831;23;20028;-90
2023/10/21 03:47:38;;;;;;;3.08;2.35;;;;;;;18.84;50.42;91438.41;6128141;23;20021;-93
2023/10/21 03:50:04;;;;;;;2.20;2.00;;;;;;;18.86;49.96;91443.31;6150372;23;20020;-92
2023/10/21 03:52:29;;;;;;;3.85;2.60;;;;;;;18.83;49.64;91447.22;6151080;23;20013;-89
2023/10/21 03:54:55;;;;;;;3.08;2.05;;;;;;;18.84;49.98;91452.09;6103264;23;20029;-92
2023/10/21 03:57:21;;;;;;;2.47;2.10;;;;;;;18.85;50.05;91447.34;6126975;23;20100;-92
2023/10/21 03:59:47;;;;;;;3.28;2.38;;;;;;;18.86;50.16;91457.00;6127711;23;20024;-90
2023/10/21 04:02:13;;;;;;;2.95;2.00;;;;;;;18.82;49.50;91457.44;6125493;23;20021;-91
2023/10/21 04:04:38;;;;;;;4.00;2.40;;;;;;;18.84;49.68;91463.03;6151533;23;20025;-91
2023/10/21 04:07:05;;;;;;;2.97;2.20;;;;;;;18.84;49.79;91473.25;6126338;23;20043;-91
2023/10/21 04:09:31;;;;;;;2.35;1.90;;;;;;;18.82;49.32;91475.88;6128159;23;20349;-92
2023/10/21 04:11:57;;;;;;;2.75;2.00;;;;;;;18.83;49.39;91472.56;6151285;23;20017;-91
2023/10/21 04:14:22;;;;;;;3.33;2.08;;;;;;;18.83;49.50;91472.56;6125631;23;20028;-90
2023/10/21 04:16:49;;;;;;;3.15;1.98;;;;;;;18.84;49.56;91462.31;6103106;23;20346;-92
2023/10/21 04:19:15;;;;;;;2.80;2.15;;;;;;;18.83;49.59;91471.84;6126863;23;20021;-90
2023/10/21 04:21:41;;;;;;;3.35;2.00;;;;;;;18.83;49.51;91480.78;6152076;23;20017;-91
2023/10/21 04:24:06;;;;;;;2.50;1.98;;;;;;;18.84;49.40;91493.16;6125903;23;20476;-92
2023/10/21 04:26:32;;;;;;;2.90;2.13;;;;;;;18.82;49.59;91501.22;6102580;23;20048;-93
2023/10/21 04:28:57;;;;;;;3.17;2.40;;;;;;;18.80;50.01;91498.31;6127415;23;20017;-90
2023/10/21 04:31:24;;;;;;;2.67;1.80;;;;;;;18.80;49.53;91498.31;6101614;23;20009;-90
2023/10/21 04:33:50;;;;;;;2.17;1.98;;;;;;;18.82;49.53;91495.75;6127812;23;20020;-92
2023/10/21 04:36:18;;;;;;;2.70;1.92;;;;;;;18.81;49.73;91504.53;6126043;23;20017;-91
2023/10/21 04:38:44;;;;;;;1.80;1.65;;;;;;;18.83;49.47;91508.16;6151597;23;20035;-91
2023/10/21 04:41:10;;;;;;;2.50;1.73;;;;;;;18.82;49.81;91506.69;6150431;23;20042;-91
2023/10/21 04:43:36;;;;;;;3.10;2.22;;;;;;;18.81;49.77;91516.19;6127550;23;20032;-92
2023/10/21 04:46:01;;;;;;;3.70;2.20;;;;;;;18.80;49.49;91520.22;6126807;23;20465;-90
2023/10/21 04:48:26;;;;;;;2.38;2.17;;;;;;;18.82;50.12;91519.66;6101998;23;20025;-93
2023/10/21 04:50:52;;;;;;;2.42;1.83;;;;;;;18.81;49.59;91529.88;6126809;23;20020;-91
2023/10/21 04:53:17;;;;;;;3.03;2.17;;;;;;;18.82;49.45;91541.56;6101136;23;20795;-91
2023/10/21 04:55:44;;;;;;;2.72;1.90;;;;;;;18.80;49.57;91544.84;6127235;23;20021;-92
2023/10/21 04:58:09;;;;;;;22.67;18.27;;;;;;;18.83;49.93;91548.50;6125141;23;20025;-91
2023/10/21 05:00:35;;;;;;;5.53;4.20;;;;;;;18.81;49.15;91557.25;6127352;23;20441;-90
2023/10/21 05:03:00;;;;;;;8.55;6.43;;;;;;;18.82;49.40;91569.66;6125542;23;20027;-90
2023/10/21 05:05:26;;;;;;;3.13;2.30;;;;;;;18.82;48.81;91574.41;6101851;23;20017;-91
2023/10/21 05:07:51;;;;;;;2.90;2.25;;;;;;;18.84;49.89;91575.28;6099959;23;20028;-93
2023/10/21 05:10:18;;;;;;;4.22;2.83;;;;;;;18.84;50.15;91582.78;6151088;23;20021;-92
2023/10/21 05:12:43;;;;;;;4.15;3.35;;;;;;;18.81;49.45;91589.38;6131054;23;20013;-92
2023/10/21 05:15:09;;;;;;;6.22;4.43;;;;;;;18.82;49.21;91594.31;6111559;23;20013;-93
2023/10/21 05:17:35;;;;;;;4.72;3.55;;;;;;;18.81;49.24;91598.31;6056414;23;20019;-93
2023/10/21 05:20:00;;;;;;;5.28;4.30;;;;;;;18.82;49.02;91610.72;6022893;23;20019;-90
2023/10/21 05:22:26;;;;;;;3.97;3.22;;;;;;;18.82;49.45;91613.47;6040312;23;20112;-89
2023/10/21 05:24:51;;;;;;;5.70;3.92;;;;;;;18.84;49.32;91621.09;6011971;23;20019;-91
2023/10/21 05:27:18;;;;;;;5.55;3.95;;;;;;;18.82;49.60;91607.25;6033212;23;20023;-92
2023/10/21 05:29:43;;;;;;;6.90;4.38;;;;;;;18.83;49.52;91614.94;6035436;23;20114;-91
2023/10/21 05:32:09;;;;;;;5.30;4.18;;;;;;;18.80;49.18;91613.28;6010011;23;20023;-93
2023/10/21 05:34:34;;;;;;;6.72;5.28;;;;;;;18.80;49.79;91635.19;6033351;23;20030;-92
2023/10/21 05:36:59;;;;;;;6.15;4.40;;;;;;;18.83;49.58;91633.34;6034222;23;20023;-92
2023/10/21 05:39:25;;;;;;;6.28;4.35;;;;;;;18.82;49.31;91640.84;6009721;23;20027;-91
2023/10/21 05:41:51;;;;;;;6.65;4.68;;;;;;;18.82;49.58;91656.53;6035449;23;20027;-91
2023/10/21 05:44:16;;;;;;;4.88;3.90;;;;;;;18.82;49.59;91651.06;6033027;23;20026;-93
2023/10/21 05:46:42;;;;;;;5.60;3.90;;;;;;;18.80;49.94;91659.84;6034443;23;20035;-90
2023/10/21 05:49:07;;;;;;;5.85;3.63;;;;;;;18.81;49.20;91674.97;6033024;23;20355;-93
2023/10/21 05:51:33;;;;;;;5.68;4.25;;;;;;;18.80;49.65;91668.03;6035926;23;20022;-91
2023/10/21 05:53:58;;;;;;;4.90;3.70;;;;;;;18.80;49.59;91686.47;6068669;23;20026;-92
2023/10/21 05:56:23;;;;;;;5.30;4.28;;;;;;;18.80;49.35;91692.69;6126926;23;20021;-92
2023/10/21 05:58:50;;;;;;;5.18;3.97;;;;;;;18.84;49.60;91689.53;6129056;23;20032;-91
2023/10/21 06:01:16;;;;;;;4.65;3.80;;;;;;;18.80;49.43;91702.91;6127927;23;20067;-91
2023/10/21 06:03:43;;;;;;;4.50;3.53;;;;;;;18.82;49.12;91694.88;6134405;23;20028;-90
2023/10/21 06:06:08;;;;;;;3.85;3.15;;;;;;;18.81;49.21;91702.34;6126660;23;20040;-91
2023/10/21 06:08:34;;;;;;;4.38;3.22;;;;;;;18.82;49.25;91709.28;6104049;23;20029;-91
2023/10/21 06:10:59;;;;;;;5.07;3.88;;;;;;;18.81;49.20;91713.31;6127878;23;20017;-91
2023/10/21 06:13:24;;;;;;;4.45;3.55;;;;;;;18.82;49.96;91712.03;6127036;23;20021;-91
2023/10/21 06:15:51;;;;;;;4.32;3.30;;;;;;;18.83;49.25;91713.47;6102585;23;20503;-89
2023/10/21 06:18:17;;;;;;;4.57;3.47;;;;;;;18.84;49.72;91716.91;6137407;23;20403;-92
2023/10/21 06:20:47;;;;;;;4.00;3.13;;;;;;;18.84;49.70;91728.59;6128065;23;20357;-90
2023/10/21 06:23:13;;;;;;;;;;;;;;;18.86;49.56;91728.03;6126953;23;20067;-90
2023/10/21 06:25:39;;;;;;;5.07;3.40;;;;;;;18.83;49.31;91727.16;6151954;23;19916;-90
2023/10/21 06:28:04;;;;;;;3.38;2.83;;;;;;;18.83;49.70;91734.66;6151387;23;20243;-91
2023/10/21 06:30:30;;;;;;;4.68;3.05;;;;;;;18.83;49.95;91735.38;6104097;23;20020;-93
2023/10/21 06:32:55;;;;;;;3.70;3.20;;;;;;;18.83;49.42;91732.66;6127539;23;20778;-92
2023/10/21 06:35:21;;;;;;;3.70;2.95;;;;;;;18.86;49.68;91747.22;6122693;23;20517;-92
2023/10/21 06:37:49;;;;;;;3.88;2.95;;;;;;;18.87;49.62;91747.94;6128385;23;20047;-91
2023/10/21 06:40:14;;;;;;;3.83;2.67;;;;;;;18.88;49.74;91754.88;6127916;23;20048;-90
2023/10/21 06:42:40;;;;;;;3.33;2.80;;;;;;;18.89;49.98;91765.28;6129332;23;20461;-92
2023/10/21 06:45:06;;;;;;;3.38;2.70;;;;;;;18.90;50.05;91760.53;6103167;23;20047;-90
2023/10/21 06:47:32;;;;;;;3.50;2.72;;;;;;;18.92;49.91;91764.16;6178461;23;20067;-91
2023/10/21 06:49:58;;;;;;;3.75;2.85;;;;;;;18.93;50.28;91775.84;6153240;23;20053;-90
2023/10/21 06:52:23;;;;;;;4.88;3.08;;;;;;;18.93;49.65;91784.06;6127195;23;20021;-91
2023/10/21 06:54:50;;;;;;;3.30;2.63;;;;;;;18.94;49.59;91778.03;6103661;23;20013;-91
2023/10/21 06:57:20;;;;;;;3.55;2.53;;;;;;;18.96;50.29;91780.94;6151673;23;20028;-90
2023/10/21 06:59:46;;;;;;;4.15;3.15;;;;;;;19.03;49.76;91779.47;6129797;23;20013;-92
2023/10/21 07:02:11;;;;;;;3.55;2.63;;;;;;;19.03;49.29;91793.16;6151980;23;20027;-92
2023/10/21 07:04:37;;;;;;;3.15;2.42;;;;;;;19.03;49.85;91795.91;6128075;23;20523;-90
2023/10/21 07:07:03;;;;;;;3.70;2.67;;;;;;;19.02;49.41;91805.41;6103741;23;20025;-92
2023/10/21 07:09:30;;;;;;;4.32;2.75;;;;;;;19.01;49.28;91804.69;6152989;23;20496;-92
2023/10/21 07:11:55;;;;;;;3.35;2.58;;;;;;;19.05;49.18;91815.25;6129214;23;20056;-90
2023/10/21 07:14:21;;;;;;;2.78;2.30;;;;;;;19.05;49.57;91812.50;6126878;23;20021;-92
2023/10/21 07:16:46;;;;;;;3.13;2.63;;;;;;;19.07;49.44;91812.66;6128693;23;20080;-90
2023/10/21 07:19:12;;;;;;;3.45;2.63;;;;;;;19.07;49.46;91821.59;6126831;23;20028;-92
2023/10/21 07:21:37;;;;;;;3.28;2.13;;;;;;;19.09;48.70;91824.53;6103899;23;20021;-90
2023/10/21 07:24:03;;;;;;;3.08;2.33;;;;;;;19.09;48.98;91832.75;6152205;23;20464;-90
2023/10/21 07:26:29;;;;;;;3.22;2.58;;;;;;;19.12;49.15;91822.69;6103701;23;20048;-91
2023/10/21 07:28:54;;;;;;;3.65;2.88;;;;;;;19.11;48.96;91827.44;6128444;23;20017;-92
2023/10/21 07:31:20;;;;;;;3.67;2.92;;;;;;;19.10;48.71;91836.94;6127999;23;20021;-90
2023/10/21 07:33:45;;;;;;;2.95;2.25;;;;;;;19.15;48.99;91843.50;6128787;23;20434;-92
2023/10/21 07:36:11;;;;;;;2.78;2.30;;;;;;;19.14;48.54;91840.03;6127473;23;20246;-90
2023/10/21 07:38:36;;;;;;;3.22;2.45;;;;;;;19.14;48.85;91848.25;6128596;23;20359;-91
2023/10/21 07:41:10;;;;;;;3.92;2.88;;;;;;;19.14;48.61;91855.75;6129312;23;20357;-91
2023/10/21 07:43:36;;;;;;;3.72;2.60;;;;;;;19.17;48.41;91846.41;6136895;23;20021;-93
2023/10/21 07:46:03;;;;;;;3.40;2.72;;;;;;;19.17;48.89;91852.63;6137152;23;20067;-92
2023/10/21 07:48:28;;;;;;;2.92;2.50;;;;;;;19.22;48.62;91856.44;6150942;23;20023;-90
2023/10/21 07:50:54;;;;;;;2.97;2.50;;;;;;;19.23;49.21;91865.41;6152738;23;20013;-91
2023/10/21 07:53:20;;;;;;;3.47;2.60;;;;;;;19.22;49.27;91866.69;6151249;23;20357;-91
2023/10/21 07:55:48;;;;;;;2.25;1.85;;;;;;;19.24;49.12;91866.84;6153117;23;20027;-92
2023/10/21 07:58:14;;;;;;;2.80;2.22;;;;;;;19.25;49.80;91871.78;6151647;23;20023;-92
2023/10/21 08:00:39;;;;;;;3.33;2.35;;;;;;;19.28;49.37;91873.41;6128258;23;20079;-91
2023/10/21 08:03:05;;;;;;;4.57;2.70;;;;;;;19.26;49.14;91878.72;6127718;23;20017;-91
2023/10/21 08:05:32;;;;;;;2.42;2.15;;;;;;;19.28;49.62;91884.34;6177472;23;20021;-92
2023/10/21 08:07:57;;;;;;;2.70;2.20;;;;;;;19.31;49.79;91891.47;6152821;23;20016;-91
2023/10/21 08:10:23;;;;;;;2.75;2.25;;;;;;;19.29;49.57;91883.06;6126667;23;20548;-92
2023/10/21 08:12:49;;;;;;;3.17;2.50;;;;;;;19.31;49.44;91890.75;6153640;23;20100;-92
2023/10/21 08:15:15;;;;;;;2.97;2.22;;;;;;;19.32;50.05;91894.94;6126867;23;20021;-91
2023/10/21 08:17:40;;;;;;;2.75;2.17;;;;;;;19.33;50.04;91894.41;6152818;23;20526;-91
2023/10/21 08:20:09;;;;;;;2.53;2.15;;;;;;;19.33;49.83;91899.16;6151468;23;20021;-91
2023/10/21 08:22:35;;;;;;;2.35;2.03;;;;;;;19.36;49.98;91895.31;6154266;23;20052;-91
2023/10/21 08:25:01;;;;;;;3.22;2.30;;;;;;;19.33;49.91;91897.13;6177015;23;20016;-90
2023/10/21 08:27:26;;;;;;;4.20;2.55;;;;;;;19.35;49.84;91897.31;6151788;23;20044;-92
2023/10/21 08:29:53;;;;;;;4.20;2.72;;;;;;;19.35;49.35;91900.06;6153051;23;20017;-93
2023/10/21 08:32:19;;;;;;;2.63;2.13;;;;;;;19.35;48.34;91908.28;6152508;23;20550;-91
2023/10/21 08:34:44;;;;;;;3.45;2.60;;;;;;;19.35;48.89;91910.28;6128326;23;20017;-91
2023/10/21 08:37:10;;;;;;;3.05;1.88;;;;;;;19.37;50.09;91910.47;6121013;23;20028;-92
2023/10/21 08:39:35;;;;;;;2.35;2.10;;;;;;;19.35;49.28;91913.75;6097378;23;20032;-93
2023/10/21 08:42:02;;;;;;;3.90;2.60;;;;;;;19.37;49.56;91932.38;6097721;23;20043;-92
2023/10/21 08:44:28;;;;;;;3.30;1.80;;;;;;;19.38;49.45;91939.31;6096475;23;20024;-91
2023/10/21 08:46:54;;;;;;;2.00;1.73;;;;;;;19.37;49.69;91954.31;6097900;23;20037;-92
2023/10/21 08:49:20;;;;;;;2.55;2.05;;;;;;;19.37;49.43;91948.81;6097130;23;20022;-89
2023/10/21 08:51:46;;;;;;;2.17;1.85;;;;;;;19.38;50.66;91956.50;6097651;23;20032;-93
2023/10/21 08:54:12;;;;;;;2.80;2.22;;;;;;;19.39;50.49;91963.44;6096559;23;20049;-90
2023/10/21 08:56:37;;;;;;;2.80;2.33;;;;;;;19.39;49.73;91963.44;6098809;23;20053;-92
2023/10/21 08:59:03;;;;;;;2.22;2.03;;;;;;;19.40;49.97;91969.66;6096503;23;20040;-92
2023/10/21 09:01:29;;;;;;;2.97;1.95;;;;;;;19.40;50.01;91969.66;6097054;23;20069;-92
2023/10/21 09:03:55;;;;;;;2.63;2.17;;;;;;;19.40;50.07;91977.88;6068930;23;20026;-90
2023/10/21 09:06:21;;;;;;;2.50;2.03;;;;;;;19.42;49.91;91991.75;6066782;23;20022;-91
2023/10/21 09:08:47;;;;;;;2.30;1.60;;;;;;;19.39;50.39;91984.63;6114034;23;20021;-89
2023/10/21 09:11:19;;;;;;;3.00;2.15;;;;;;;19.40;50.78;91977.88;6071950;23;20032;-92
2023/10/21 09:13:44;;;;;;;2.20;1.90;;;;;;;19.40;50.90;91986.09;6073933;23;20108;-91
2023/10/21 09:16:26;;;;;;;2.90;2.13;;;;;;;19.40;50.33;91983.34;6095823;23;20014;-90
2023/10/21 09:19:07;;;;;;;3.75;2.30;;;;;;;19.38;50.35;91992.13;6121961;23;20465;-89
2023/10/21 09:21:37;;;;;;;3.40;2.28;;;;;;;19.40;50.66;91984.06;6086258;23;20053;-91
2023/10/21 09:24:07;;;;;;;2.60;2.10;;;;;;;19.40;50.79;91988.81;6067832;23;20017;-91
2023/10/21 09:26:36;;;;;;;3.13;2.03;;;;;;;19.40;50.42;91984.06;6088258;23;20240;-92
2023/10/21 09:29:12;;;;;;;4.10;2.28;;;;;;;19.40;50.77;91986.09;6050084;23;20558;-91
2023/10/21 09:31:53;;;;;;;2.55;1.92;;;;;;;19.39;50.40;91985.34;6098569;23;20457;-93
2023/10/21 09:34:25;;;;;;;;;;;;;;;19.40;51.08;91986.09;6081230;23;20517;-91
2023/10/21 09:36:57;;;;;;;2.40;1.70;;;;;;;19.36;50.05;91977.50;6153552;23;19908;-92
2023/10/21 09:39:24;;;;;;;2.72;2.30;;;;;;;19.36;51.08;91988.47;6152112;23;20025;-93
2023/10/21 09:41:50;;;;;;;2.55;1.80;;;;;;;19.36;51.06;91978.22;6106781;23;20018;-93
2023/10/21 09:44:16;;;;;;;2.83;2.22;;;;;;;19.35;51.00;91982.25;6122200;23;20021;-90
2023/10/21 09:46:46;;;;;;;3.10;2.25;;;;;;;19.35;50.48;91981.53;6100142;23;20033;-93
2023/10/21 09:49:13;;;;;;;2.63;2.20;;;;;;;19.36;50.64;91982.97;6120627;23;20022;-91
2023/10/21 09:51:54;;;;;;;2.45;1.85;;;;;;;19.35;50.37;91985.00;6113423;23;20335;-92
2023/10/21 09:54:23;;;;;;;2.58;2.10;;;;;;;19.36;51.27;91993.94;6096165;23;20437;-92
2023/10/21 09:56:49;;;;;;;2.88;2.20;;;;;;;19.35;50.74;91985.00;6071380;23;20024;-90
2023/10/21 09:59:15;;;;;;;2.95;2.13;;;;;;;19.34;49.64;91985.53;6094576;23;20022;-91
2023/10/21 10:01:43;;;;;;;2.60;1.90;;;;;;;19.37;50.80;91987.19;6120393;23;20052;-92
2023/10/21 10:04:10;;;;;;;3.33;1.80;;;;;;;19.36;51.48;91986.47;6070940;23;20029;-91
2023/10/21 10:06:37;;;;;;;2.88;1.80;;;;;;;19.36;49.72;91980.97;6071228;23;20032;-92
2023/10/21 10:09:06;;;;;;;2.05;1.85;;;;;;;19.36;50.24;91994.69;6095059;23;20092;-92
2023/10/21 10:11:31;;;;;;;1.95;1.67;;;;;;;19.37;49.89;91982.44;6095851;23;20068;-90
2023/10/21 10:13:57;;;;;;;1.90;1.70;;;;;;;19.38;49.89;91977.69;6096997;23;20604;-91
2023/10/21 10:16:27;;;;;;;2.55;2.10;;;;;;;19.37;49.25;91987.91;6072127;23;20029;-92
2023/10/21 10:18:55;;;;;;;2.47;1.92;;;;;;;19.36;49.70;91983.72;6143896;23;20017;-89
2023/10/21 10:21:21;;;;;;;8.35;3.58;;;;;;;19.36;49.30;91991.94;6072619;23;20049;-93
2023/10/21 10:23:50;;;;;;;7.40;3.25;;;;;;;19.34;50.00;91991.75;6118987;23;20017;-90
2023/10/21 10:26:27;;;;;;;5.53;2.67;;;;;;;19.34;49.64;91980.06;6122600;23;20345;-90
2023/10/21 10:28:53;;;;;;;9.32;3.90;;;;;;;19.33;49.84;91989.56;6119331;23;20025;-90
2023/10/21 10:31:18;;;;;;;13.90;4.78;;;;;;;19.34;49.98;91982.81;6095960;23;20022;-90
2023/10/21 10:33:50;;;;;;;13.45;4.78;;;;;;;19.34;50.18;91980.06;6117102;23;20017;-92
2023/10/21 10:36:17;;;;;;;14.05;6.05;;;;;;;19.31;49.53;91995.59;6100690;23;20018;-91
2023/10/21 10:38:44;;;;;;;16.85;5.03;;;;;;;19.33;49.93;91989.56;6126289;23;20457;-93
2023/10/21 10:41:11;;;;;;;16.27;4.28;;;;;;;19.32;50.02;91999.78;6124350;23;20492;-91
2023/10/21 10:43:41;;;;;;;9.15;4.80;;;;;;;19.33;49.81;91993.03;6078353;23;20021;-90
2023/10/21 10:46:06;;;;;;;18.00;4.77;;;;;;;19.33;49.84;91997.78;6125554;23;20710;-91
2023/10/21 10:48:34;;;;;;;15.63;4.82;;;;;;;19.33;50.31;91998.50;6155969;23;20082;-91
2023/10/21 10:51:00;;;;;;;17.25;4.90;;;;;;;19.31;49.34;91997.59;6156017;23;20021;-92
2023/10/21 10:53:26;;;;;;;10.45;4.07;;;;;;;19.32;49.74;91990.84;6155386;23;20452;-92
2023/10/21 10:55:55;;;;;;;10.90;4.63;;;;;;;19.32;50.02;91993.59;6156068;23;20021;-90
2023/10/21 10:58:20;;;;;;;10.35;4.68;;;;;;;19.32;49.98;91993.59;6155093;23;20021;-90
2023/10/21 11:00:47;;;;;;;9.80;4.45;;;;;;;19.31;49.62;91992.84;6155839;23;20016;-91
2023/10/21 11:03:27;;;;;;;9.95;4.57;;;;;;;19.30;49.99;92009.84;6154813;23;20461;-91
2023/10/21 11:05:56;;;;;;;11.52;4.72;;;;;;;19.31;49.46;92000.34;6132174;23;20075;-90
2023/10/21 11:08:23;;;;;;;14.25;4.72;;;;;;;19.31;49.88;91998.34;6154939;23;20033;-91
2023/10/21 11:10:53;;;;;;;12.65;5.38;;;;;;;19.31;49.23;92005.81;6156049;23;20021;-93
2023/10/21 11:13:19;;;;;;;17.27;4.82;;;;;;;19.30;49.58;92001.63;6130907;23;20109;-93
2023/10/21 11:15:47;;;;;;;21.60;5.25;;;;;;;19.31;48.97;92014.03;6131566;23;20070;-93
2023/10/21 11:18:15;;;;;;;10.68;4.57;;;;;;;19.29;49.62;92008.38;6129929;23;20060;-92
2023/10/21 11:20:48;;;;;;;11.65;4.15;;;;;;;19.28;49.44;92012.41;6156002;23;20021;-93
2023/10/21 11:23:15;;;;;;;7.15;4.07;;;;;;;19.30;49.36;92010.56;6155215;23;20409;-93
2023/10/21 11:25:40;;;;;;;15.18;4.80;;;;;;;19.30;48.98;92018.06;6131664;23;20032;-91
2023/10/21 11:28:06;;;;;;;12.80;4.63;;;;;;;19.31;50.18;92019.53;6130428;23;20043;-91
2023/10/21 11:30:33;;;;;;;11.43;4.10;;;;;;;19.31;49.34;92025.00;6154735;23;20024;-90